sensor_id;sensor_type;location;lat;lon;timestamp;pressure;altitude;pressure_sealevel;temperature;humidity
24486;BME280;13449;49.374;8.584;2022-08-01T00:00:52;100488.53;;;21.87;56.44
24486;BME280;13449;49.374;8.584;2022-08-01T00:03:20;100480.50;;;21.85;57.46
24486;BME280;13449;49.374;8.584;2022-08-01T00:05:47;100475.78;;;21.86;58.22
24486;BME280;13449;49.374;8.584;2022-08-01T00:08:13;100479.34;;;21.81;58.04
24486;BME280;13449;49.374;8.584;2022-08-01T00:10:47;100485.47;;;21.83;57.78
24486;BME280;13449;49.374;8.584;2022-08-01T00:13:16;100469.31;;;21.80;59.00
24486;BME280;13449;49.374;8.584;2022-08-01T00:15:49;100484.28;;;21.79;57.44
24486;BME280;13449;49.374;8.584;2022-08-01T00:18:19;100483.13;;;21.75;58.36
24486;BME280;13449;49.374;8.584;2022-08-01T00:20:54;100470.38;;;21.74;58.99
24486;BME280;13449;49.374;8.584;2022-08-01T00:23:21;100480.31;;;21.70;59.09
24486;BME280;13449;49.374;8.584;2022-08-01T00:25:54;100483.59;;;21.67;58.89
24486;BME280;13449;49.374;8.584;2022-08-01T00:28:20;100478.31;;;21.65;59.16
24486;BME280;13449;49.374;8.584;2022-08-01T00:30:49;100478.56;;;21.64;59.56
24486;BME280;13449;49.374;8.584;2022-08-01T00:33:18;100487.69;;;21.59;59.82
24486;BME280;13449;49.374;8.584;2022-08-01T00:35:44;100493.56;;;21.63;59.27
24486;BME280;13449;49.374;8.584;2022-08-01T00:38:11;100492.97;;;21.61;59.20
24486;BME280;13449;49.374;8.584;2022-08-01T00:40:44;100489.34;;;21.60;59.29
24486;BME280;13449;49.374;8.584;2022-08-01T00:43:10;100486.25;;;21.57;59.61
24486;BME280;13449;49.374;8.584;2022-08-01T00:45:37;100485.34;;;21.51;60.52
24486;BME280;13449;49.374;8.584;2022-08-01T00:48:04;100483.91;;;21.49;60.79
24486;BME280;13449;49.374;8.584;2022-08-01T00:50:31;100500.56;;;21.49;59.83
24486;BME280;13449;49.374;8.584;2022-08-01T00:52:58;100493.09;;;21.49;61.18
24486;BME280;13449;49.374;8.584;2022-08-01T00:55:32;100496.47;;;21.51;60.25
24486;BME280;13449;49.374;8.584;2022-08-01T00:57:59;100501.72;;;21.53;60.23
24486;BME280;13449;49.374;8.584;2022-08-01T01:00:37;100539.41;;;21.49;55.79
24486;BME280;13449;49.374;8.584;2022-08-01T01:03:20;100531.91;;;21.66;56.82
24486;BME280;13449;49.374;8.584;2022-08-01T01:17:28;100506.50;;;21.79;61.38
24486;BME280;13449;49.374;8.584;2022-08-01T01:20:18;100502.56;;;21.75;61.59
24486;BME280;13449;49.374;8.584;2022-08-01T01:30:38;100507.72;;;21.45;62.94
24486;BME280;13449;49.374;8.584;2022-08-01T01:33:06;100510.13;;;21.36;63.33
24486;BME280;13449;49.374;8.584;2022-08-01T01:35:42;100510.22;;;21.25;63.96
24486;BME280;13449;49.374;8.584;2022-08-01T01:38:15;100523.25;;;21.24;63.67
24486;BME280;13449;49.374;8.584;2022-08-01T01:40:45;100512.88;;;21.14;64.28
24486;BME280;13449;49.374;8.584;2022-08-01T01:43:13;100509.97;;;21.09;64.56
24486;BME280;13449;49.374;8.584;2022-08-01T01:45:44;100519.28;;;21.03;64.62
24486;BME280;13449;49.374;8.584;2022-08-01T01:48:15;100530.00;;;20.95;65.54
24486;BME280;13449;49.374;8.584;2022-08-01T01:50:43;100527.47;;;20.93;65.35
24486;BME280;13449;49.374;8.584;2022-08-01T01:53:12;100524.00;;;20.86;66.33
24486;BME280;13449;49.374;8.584;2022-08-01T01:55:41;100532.75;;;20.78;66.49
24486;BME280;13449;49.374;8.584;2022-08-01T01:58:16;100537.63;;;20.71;66.98
24486;BME280;13449;49.374;8.584;2022-08-01T02:00:45;100531.97;;;20.66;67.44
24486;BME280;13449;49.374;8.584;2022-08-01T02:03:22;100538.63;;;20.65;66.49
24486;BME280;13449;49.374;8.584;2022-08-01T02:05:51;100541.31;;;20.60;67.05
24486;BME280;13449;49.374;8.584;2022-08-01T02:08:28;100534.34;;;20.57;66.90
24486;BME280;13449;49.374;8.584;2022-08-01T02:10:58;100535.00;;;20.48;67.38
24486;BME280;13449;49.374;8.584;2022-08-01T02:13:56;100544.88;;;20.44;67.12
24486;BME280;13449;49.374;8.584;2022-08-01T02:16:27;100551.63;;;20.48;66.93
24486;BME280;13449;49.374;8.584;2022-08-01T02:19:02;100541.94;;;20.34;68.33
24486;BME280;13449;49.374;8.584;2022-08-01T02:21:44;100543.34;;;20.36;68.11
24486;BME280;13449;49.374;8.584;2022-08-01T02:26:57;100540.13;;;20.27;68.73
24486;BME280;13449;49.374;8.584;2022-08-01T02:29:53;100538.09;;;20.23;69.00
24486;BME280;13449;49.374;8.584;2022-08-01T02:32:30;100548.34;;;20.22;69.28
24486;BME280;13449;49.374;8.584;2022-08-01T02:35:07;100547.16;;;20.18;69.29
24486;BME280;13449;49.374;8.584;2022-08-01T02:37:38;100542.69;;;20.17;69.76
24486;BME280;13449;49.374;8.584;2022-08-01T02:40:13;100547.16;;;20.18;70.29
24486;BME280;13449;49.374;8.584;2022-08-01T02:42:45;100548.00;;;20.19;69.61
24486;BME280;13449;49.374;8.584;2022-08-01T02:45:23;100543.31;;;20.19;70.09
24486;BME280;13449;49.374;8.584;2022-08-01T02:47:51;100545.00;;;20.20;70.21
24486;BME280;13449;49.374;8.584;2022-08-01T02:50:28;100543.53;;;20.18;70.32
24486;BME280;13449;49.374;8.584;2022-08-01T02:52:56;100543.31;;;20.19;70.50
24486;BME280;13449;49.374;8.584;2022-08-01T02:55:33;100543.31;;;20.19;70.64
24486;BME280;13449;49.374;8.584;2022-08-01T02:58:04;100546.66;;;20.21;70.49
24486;BME280;13449;49.374;8.584;2022-08-01T03:00:42;100539.94;;;20.17;70.57
24486;BME280;13449;49.374;8.584;2022-08-01T03:03:15;100539.13;;;20.17;71.22
24486;BME280;13449;49.374;8.584;2022-08-01T03:05:54;100535.50;;;20.16;70.90
24486;BME280;13449;49.374;8.584;2022-08-01T03:08:30;100544.28;;;20.13;70.95
24486;BME280;13449;49.374;8.584;2022-08-01T03:11:04;100543.13;;;20.09;71.16
24486;BME280;13449;49.374;8.584;2022-08-01T03:13:35;100528.56;;;20.02;71.30
24486;BME280;13449;49.374;8.584;2022-08-01T03:16:09;100542.88;;;19.99;71.42
24486;BME280;13449;49.374;8.584;2022-08-01T03:18:39;100542.88;;;19.99;71.48
24486;BME280;13449;49.374;8.584;2022-08-01T03:21:18;100538.34;;;19.93;71.49
24486;BME280;13449;49.374;8.584;2022-08-01T03:23:50;100538.00;;;19.90;72.01
24486;BME280;13449;49.374;8.584;2022-08-01T03:26:34;100543.78;;;19.88;71.60
24486;BME280;13449;49.374;8.584;2022-08-01T03:29:05;100530.59;;;19.78;72.32
24486;BME280;13449;49.374;8.584;2022-08-01T03:31:44;100531.44;;;19.79;72.41
24486;BME280;13449;49.374;8.584;2022-08-01T03:34:11;100537.44;;;19.76;72.55
24486;BME280;13449;49.374;8.584;2022-08-01T03:36:58;100535.16;;;19.73;72.46
24486;BME280;13449;49.374;8.584;2022-08-01T03:39:38;100548.06;;;19.67;73.14
24486;BME280;13449;49.374;8.584;2022-08-01T03:42:15;100540.09;;;19.71;73.46
24486;BME280;13449;49.374;8.584;2022-08-01T03:44:48;100540.72;;;19.61;73.91
24486;BME280;13449;49.374;8.584;2022-08-01T03:47:18;100543.25;;;19.63;73.62
24486;BME280;13449;49.374;8.584;2022-08-01T03:49:50;100545.41;;;19.61;73.94
24486;BME280;13449;49.374;8.584;2022-08-01T03:52:19;100542.91;;;19.59;73.84
24486;BME280;13449;49.374;8.584;2022-08-01T03:54:47;100544.47;;;19.55;73.97
24486;BME280;13449;49.374;8.584;2022-08-01T03:57:15;100549.66;;;19.52;74.17
24486;BME280;13449;49.374;8.584;2022-08-01T04:00:04;100546.53;;;19.48;74.72
24486;BME280;13449;49.374;8.584;2022-08-01T04:02:34;100545.69;;;19.48;74.47
24486;BME280;13449;49.374;8.584;2022-08-01T04:05:04;100541.13;;;19.42;74.68
24486;BME280;13449;49.374;8.584;2022-08-01T04:07:32;100536.41;;;19.42;74.65
24486;BME280;13449;49.374;8.584;2022-08-01T04:10:03;100541.56;;;19.39;74.71
24486;BME280;13449;49.374;8.584;2022-08-01T04:12:29;100540.47;;;19.40;74.83
24486;BME280;13449;49.374;8.584;2022-08-01T04:14:56;100540.97;;;19.37;75.04
24486;BME280;13449;49.374;8.584;2022-08-01T04:17:22;100543.03;;;19.29;75.93
24486;BME280;13449;49.374;8.584;2022-08-01T04:19:49;100552.16;;;19.30;75.58
24486;BME280;13449;49.374;8.584;2022-08-01T04:22:15;100544.09;;;19.28;75.50
24486;BME280;13449;49.374;8.584;2022-08-01T04:24:47;100562.97;;;19.31;75.33
24486;BME280;13449;49.374;8.584;2022-08-01T04:27:25;100564.66;;;19.33;75.84
24486;BME280;13449;49.374;8.584;2022-08-01T04:30:16;100566.34;;;19.34;75.51
24486;BME280;13449;49.374;8.584;2022-08-01T04:32:47;100562.47;;;19.35;75.32
24486;BME280;13449;49.374;8.584;2022-08-01T04:35:16;100565.38;;;19.40;75.66
24486;BME280;13449;49.374;8.584;2022-08-01T04:38:04;100574.31;;;19.42;75.26
24486;BME280;13449;49.374;8.584;2022-08-01T04:40:32;100573.56;;;19.46;75.44
24486;BME280;13449;49.374;8.584;2022-08-01T04:43:00;100567.31;;;19.51;75.32
24486;BME280;13449;49.374;8.584;2022-08-01T04:45:27;100566.81;;;19.54;76.40
24486;BME280;13449;49.374;8.584;2022-08-01T04:47:56;100571.63;;;19.58;75.17
24486;BME280;13449;49.374;8.584;2022-08-01T04:50:26;100574.25;;;19.65;75.56
24486;BME280;13449;49.374;8.584;2022-08-01T04:52:53;100573.31;;;19.71;74.39
24486;BME280;13449;49.374;8.584;2022-08-01T04:55:19;100594.09;;;19.73;69.50
24486;BME280;13449;49.374;8.584;2022-08-01T04:57:47;100583.50;;;19.82;72.17
24486;BME280;13449;49.374;8.584;2022-08-01T05:00:14;100581.56;;;19.94;74.49
24486;BME280;13449;49.374;8.584;2022-08-01T05:02:42;100576.72;;;20.01;74.36
24486;BME280;13449;49.374;8.584;2022-08-01T05:05:09;100586.31;;;20.10;74.00
24486;BME280;13449;49.374;8.584;2022-08-01T05:07:41;100582.31;;;20.18;74.60
24486;BME280;13449;49.374;8.584;2022-08-01T05:10:10;100583.59;;;20.27;74.09
24486;BME280;13449;49.374;8.584;2022-08-01T05:12:39;100585.19;;;20.35;72.59
24486;BME280;13449;49.374;8.584;2022-08-01T05:15:11;100578.97;;;20.44;73.96
24486;BME280;13449;49.374;8.584;2022-08-01T05:17:41;100591.25;;;20.48;71.22
24486;BME280;13449;49.374;8.584;2022-08-01T05:20:11;100590.34;;;20.59;72.39
24486;BME280;13449;49.374;8.584;2022-08-01T05:22:38;100584.63;;;20.66;73.22
24486;BME280;13449;49.374;8.584;2022-08-01T05:25:07;100602.94;;;20.67;68.27
24486;BME280;13449;49.374;8.584;2022-08-01T05:27:34;100581.56;;;20.79;73.29
24486;BME280;13449;49.374;8.584;2022-08-01T05:30:06;100581.38;;;20.86;73.51
24486;BME280;13449;49.374;8.584;2022-08-01T05:32:34;100583.75;;;20.94;73.56
24486;BME280;13449;49.374;8.584;2022-08-01T05:35:03;100586.34;;;21.00;71.99
24486;BME280;13449;49.374;8.584;2022-08-01T05:37:32;100603.59;;;21.02;69.25
24486;BME280;13449;49.374;8.584;2022-08-01T05:39:59;100590.16;;;21.11;73.48
24486;BME280;13449;49.374;8.584;2022-08-01T05:42:26;100613.44;;;21.10;68.87
24486;BME280;13449;49.374;8.584;2022-08-01T05:44:52;100591.84;;;21.12;74.06
24486;BME280;13449;49.374;8.584;2022-08-01T05:47:19;100600.88;;;21.07;72.63
24486;BME280;13449;49.374;8.584;2022-08-01T05:49:45;100594.44;;;21.18;72.74
24486;BME280;13449;49.374;8.584;2022-08-01T05:52:12;100588.97;;;21.40;72.23
24486;BME280;13449;49.374;8.584;2022-08-01T05:54:39;100591.66;;;21.52;71.37
24486;BME280;13449;49.374;8.584;2022-08-01T05:57:06;100602.94;;;21.67;69.95
24486;BME280;13449;49.374;8.584;2022-08-01T05:59:32;100593.81;;;21.88;70.45
24486;BME280;13449;49.374;8.584;2022-08-01T06:01:59;100609.88;;;22.03;67.27
24486;BME280;13449;49.374;8.584;2022-08-01T06:04:27;100597.34;;;22.22;67.85
24486;BME280;13449;49.374;8.584;2022-08-01T06:06:54;100598.34;;;22.38;69.07
24486;BME280;13449;49.374;8.584;2022-08-01T06:09:20;100602.91;;;22.49;68.88
24486;BME280;13449;49.374;8.584;2022-08-01T06:11:47;100613.50;;;22.52;66.87
24486;BME280;13449;49.374;8.584;2022-08-01T06:14:13;100635.31;;;22.65;64.41
24486;BME280;13449;49.374;8.584;2022-08-01T06:16:42;100612.09;;;23.03;66.55
24486;BME280;13449;49.374;8.584;2022-08-01T06:19:11;100609.06;;;23.09;65.90
24486;BME280;13449;49.374;8.584;2022-08-01T06:21:37;100626.91;;;23.08;64.44
24486;BME280;13449;49.374;8.584;2022-08-01T06:24:04;100607.38;;;23.03;66.73
24486;BME280;13449;49.374;8.584;2022-08-01T06:26:31;100623.44;;;22.96;64.87
24486;BME280;13449;49.374;8.584;2022-08-01T06:28:58;100617.81;;;22.91;65.63
24486;BME280;13449;49.374;8.584;2022-08-01T06:31:24;100637.13;;;22.76;63.16
24486;BME280;13449;49.374;8.584;2022-08-01T06:33:55;100613.78;;;22.77;65.24
24486;BME280;13449;49.374;8.584;2022-08-01T06:36:23;100637.88;;;22.93;63.19
24486;BME280;13449;49.374;8.584;2022-08-01T06:38:51;100636.91;;;23.09;63.27
24486;BME280;13449;49.374;8.584;2022-08-01T06:41:18;100630.81;;;23.13;62.84
24486;BME280;13449;49.374;8.584;2022-08-01T06:43:44;100630.06;;;23.22;63.63
24486;BME280;13449;49.374;8.584;2022-08-01T06:46:11;100626.69;;;23.52;63.81
24486;BME280;13449;49.374;8.584;2022-08-01T06:48:37;100645.25;;;23.73;61.40
24486;BME280;13449;49.374;8.584;2022-08-01T06:51:05;100637.88;;;23.99;61.92
24486;BME280;13449;49.374;8.584;2022-08-01T06:53:36;100669.97;;;24.12;59.31
24486;BME280;13449;49.374;8.584;2022-08-01T06:56:04;100664.22;;;24.28;59.93
24486;BME280;13449;49.374;8.584;2022-08-01T06:58:32;100662.31;;;24.39;59.34
24486;BME280;13449;49.374;8.584;2022-08-01T07:01:04;100676.06;;;24.61;58.41
24486;BME280;13449;49.374;8.584;2022-08-01T07:03:34;100675.25;;;24.70;58.51
24486;BME280;13449;49.374;8.584;2022-08-01T07:06:21;100672.00;;;24.88;58.18
24486;BME280;13449;49.374;8.584;2022-08-01T07:08:48;100658.03;;;24.93;58.96
24486;BME280;13449;49.374;8.584;2022-08-01T07:11:14;100694.88;;;24.95;55.46
24486;BME280;13449;49.374;8.584;2022-08-01T07:13:41;100675.94;;;25.08;56.66
24486;BME280;13449;49.374;8.584;2022-08-01T07:16:13;100674.81;;;25.29;57.82
24486;BME280;13449;49.374;8.584;2022-08-01T07:18:40;100688.78;;;25.39;56.24
24486;BME280;13449;49.374;8.584;2022-08-01T07:21:09;100703.28;;;25.31;54.97
24486;BME280;13449;49.374;8.584;2022-08-01T07:23:56;100690.75;;;25.54;55.31
24486;BME280;13449;49.374;8.584;2022-08-01T07:26:24;100686.56;;;25.61;55.73
24486;BME280;13449;49.374;8.584;2022-08-01T07:28:53;100704.19;;;25.57;53.58
24486;BME280;13449;49.374;8.584;2022-08-01T07:31:22;100649.66;;;25.89;57.53
24486;BME280;13449;49.374;8.584;2022-08-01T07:33:51;100656.28;;;26.14;57.43
24486;BME280;13449;49.374;8.584;2022-08-01T07:36:20;100659.06;;;26.29;56.74
24486;BME280;13449;49.374;8.584;2022-08-01T07:38:47;100664.63;;;26.39;54.85
24486;BME280;13449;49.374;8.584;2022-08-01T07:41:13;100655.59;;;26.52;55.61
24486;BME280;13449;49.374;8.584;2022-08-01T07:43:40;100674.13;;;26.43;55.00
24486;BME280;13449;49.374;8.584;2022-08-01T07:46:18;100716.94;;;26.33;49.93
24486;BME280;13449;49.374;8.584;2022-08-01T07:48:44;100669.72;;;26.12;53.91
24486;BME280;13449;49.374;8.584;2022-08-01T07:51:11;100662.28;;;25.72;55.02
24486;BME280;13449;49.374;8.584;2022-08-01T07:53:40;100646.34;;;25.62;55.69
24486;BME280;13449;49.374;8.584;2022-08-01T07:56:09;100648.16;;;26.17;54.18
24486;BME280;13449;49.374;8.584;2022-08-01T07:58:36;100649.72;;;26.54;54.64
24486;BME280;13449;49.374;8.584;2022-08-01T08:01:02;100623.22;;;26.90;56.10
24486;BME280;13449;49.374;8.584;2022-08-01T08:03:29;100669.25;;;27.13;53.86
24486;BME280;13449;49.374;8.584;2022-08-01T08:06:00;100674.16;;;27.31;52.07
24486;BME280;13449;49.374;8.584;2022-08-01T08:08:26;100683.16;;;27.23;51.35
24486;BME280;13449;49.374;8.584;2022-08-01T08:10:54;100709.88;;;27.10;49.41
24486;BME280;13449;49.374;8.584;2022-08-01T08:13:23;100692.41;;;27.23;50.93
24486;BME280;13449;49.374;8.584;2022-08-01T08:15:52;100684.19;;;26.98;50.40
24486;BME280;13449;49.374;8.584;2022-08-01T08:18:19;100688.91;;;26.54;50.58
24486;BME280;13449;49.374;8.584;2022-08-01T08:20:45;100666.03;;;26.96;52.00
24486;BME280;13449;49.374;8.584;2022-08-01T08:23:17;100696.63;;;26.77;50.79
24486;BME280;13449;49.374;8.584;2022-08-01T08:26:17;100663.28;;;26.21;52.67
24486;BME280;13449;49.374;8.584;2022-08-01T08:28:44;100643.69;;;26.31;54.42
24486;BME280;13449;49.374;8.584;2022-08-01T08:31:16;100634.22;;;26.76;54.44
24486;BME280;13449;49.374;8.584;2022-08-01T08:34:03;100678.38;;;26.84;52.15
24486;BME280;13449;49.374;8.584;2022-08-01T08:36:35;100681.75;;;26.86;51.44
24486;BME280;13449;49.374;8.584;2022-08-01T08:39:03;100698.09;;;26.59;50.50
24486;BME280;13449;49.374;8.584;2022-08-01T08:41:36;100691.03;;;26.77;51.08
24486;BME280;13449;49.374;8.584;2022-08-01T08:44:05;100683.88;;;27.00;50.15
24486;BME280;13449;49.374;8.584;2022-08-01T08:46:41;100654.19;;;27.37;51.86
24486;BME280;13449;49.374;8.584;2022-08-01T08:49:13;100699.44;;;27.21;50.39
24486;BME280;13449;49.374;8.584;2022-08-01T08:51:49;100719.06;;;27.21;48.00
24486;BME280;13449;49.374;8.584;2022-08-01T08:54:17;100694.50;;;27.47;49.71
24486;BME280;13449;49.374;8.584;2022-08-01T08:56:58;100674.91;;;27.47;49.94
24486;BME280;13449;49.374;8.584;2022-08-01T08:59:24;100689.38;;;27.15;48.17
24486;BME280;13449;49.374;8.584;2022-08-01T09:01:58;100699.19;;;27.17;49.29
24486;BME280;13449;49.374;8.584;2022-08-01T09:04:26;100653.00;;;27.49;51.60
24486;BME280;13449;49.374;8.584;2022-08-01T09:06:58;100698.72;;;27.44;48.48
24486;BME280;13449;49.374;8.584;2022-08-01T09:09:32;100691.53;;;27.33;49.68
24486;BME280;13449;49.374;8.584;2022-08-01T09:12:16;100701.63;;;27.29;49.05
24486;BME280;13449;49.374;8.584;2022-08-01T09:14:47;100707.41;;;27.48;47.91
24486;BME280;13449;49.374;8.584;2022-08-01T09:17:15;100694.50;;;27.47;49.59
24486;BME280;13449;49.374;8.584;2022-08-01T09:19:48;100685.81;;;27.48;50.19
24486;BME280;13449;49.374;8.584;2022-08-01T09:22:19;100728.97;;;27.03;47.69
24486;BME280;13449;49.374;8.584;2022-08-01T09:25:08;100717.47;;;27.00;47.31
24486;BME280;13449;49.374;8.584;2022-08-01T09:27:36;100701.59;;;26.95;49.13
24486;BME280;13449;49.374;8.584;2022-08-01T09:32:59;100668.00;;;26.90;51.00
24486;BME280;13449;49.374;8.584;2022-08-01T09:35:37;100676.31;;;27.05;50.20
24486;BME280;13449;49.374;8.584;2022-08-01T09:38:19;100673.22;;;27.46;50.51
24486;BME280;13449;49.374;8.584;2022-08-01T09:43:17;100714.97;;;27.03;48.39
24486;BME280;13449;49.374;8.584;2022-08-01T09:45:45;100652.72;;;27.50;51.66
24486;BME280;13449;49.374;8.584;2022-08-01T09:48:21;100692.81;;;27.46;48.29
24486;BME280;13449;49.374;8.584;2022-08-01T09:50:56;100758.78;;;27.23;45.97
24486;BME280;13449;49.374;8.584;2022-08-01T09:53:48;100730.41;;;27.39;47.53
24486;BME280;13449;49.374;8.584;2022-08-01T09:56:18;100724.28;;;27.32;47.82
24486;BME280;13449;49.374;8.584;2022-08-01T09:58:56;100724.28;;;27.32;48.02
24486;BME280;13449;49.374;8.584;2022-08-01T10:01:43;100724.94;;;27.19;47.45
24486;BME280;13449;49.374;8.584;2022-08-01T10:04:13;100718.06;;;27.02;47.36
24486;BME280;13449;49.374;8.584;2022-08-01T10:06:43;100707.25;;;27.24;47.69
24486;BME280;13449;49.374;8.584;2022-08-01T10:09:13;100676.34;;;27.34;49.60
24486;BME280;13449;49.374;8.584;2022-08-01T10:11:43;100688.44;;;27.29;48.06
24486;BME280;13449;49.374;8.584;2022-08-01T10:14:10;100677.56;;;27.23;49.05
24486;BME280;13449;49.374;8.584;2022-08-01T10:16:44;100653.66;;;27.35;50.75
24486;BME280;13449;49.374;8.584;2022-08-01T10:19:21;100620.81;;;27.46;51.63
24486;BME280;13449;49.374;8.584;2022-08-01T10:21:50;100646.47;;;27.87;50.28
24486;BME280;13449;49.374;8.584;2022-08-01T10:24:27;100682.81;;;27.97;49.02
24486;BME280;13449;49.374;8.584;2022-08-01T10:26:57;100690.88;;;28.04;47.21
24486;BME280;13449;49.374;8.584;2022-08-01T10:29:41;100737.13;;;27.77;45.59
24486;BME280;13449;49.374;8.584;2022-08-01T10:32:25;100725.34;;;27.47;45.05
24486;BME280;13449;49.374;8.584;2022-08-01T10:34:54;100721.53;;;27.22;45.88
24486;BME280;13449;49.374;8.584;2022-08-01T10:37:21;100661.44;;;27.44;50.41
24486;BME280;13449;49.374;8.584;2022-08-01T10:39:48;100662.56;;;27.48;49.00
24486;BME280;13449;49.374;8.584;2022-08-01T10:42:34;100667.34;;;27.42;49.10
24486;BME280;13449;49.374;8.584;2022-08-01T10:45:01;100655.63;;;27.35;49.49
24486;BME280;13449;49.374;8.584;2022-08-01T10:47:42;100617.28;;;27.30;51.67
24486;BME280;13449;49.374;8.584;2022-08-01T10:50:25;100652.97;;;27.20;49.34
24486;BME280;13449;49.374;8.584;2022-08-01T11:01:13;100623.63;;;27.07;51.70
24486;BME280;13449;49.374;8.584;2022-08-01T11:03:57;100628.84;;;27.24;50.68
24486;BME280;13449;49.374;8.584;2022-08-01T11:20:29;100667.84;;;28.54;48.29
24486;BME280;13449;49.374;8.584;2022-08-01T11:28:28;100670.81;;;28.44;48.45
24486;BME280;13449;49.374;8.584;2022-08-01T11:36:17;100658.81;;;29.37;46.95
24486;BME280;13449;49.374;8.584;2022-08-01T11:41:40;100700.78;;;29.47;44.60
24486;BME280;13449;49.374;8.584;2022-08-01T11:44:12;100703.97;;;29.03;44.02
24486;BME280;13449;49.374;8.584;2022-08-01T11:47:08;100708.41;;;28.91;43.84
24486;BME280;13449;49.374;8.584;2022-08-01T11:49:46;100694.56;;;28.94;44.33
24486;BME280;13449;49.374;8.584;2022-08-01T11:52:33;100718.22;;;28.69;42.27
24486;BME280;13449;49.374;8.584;2022-08-01T11:57:31;100699.66;;;29.11;42.84
24486;BME280;13449;49.374;8.584;2022-08-01T12:00:11;100670.75;;;29.61;44.32
24486;BME280;13449;49.374;8.584;2022-08-01T12:02:42;100703.44;;;29.57;42.48
24486;BME280;13449;49.374;8.584;2022-08-01T12:05:12;100703.75;;;29.37;43.72
24486;BME280;13449;49.374;8.584;2022-08-01T12:07:42;100673.16;;;29.54;44.73
24486;BME280;13449;49.374;8.584;2022-08-01T12:10:14;100693.06;;;29.71;42.41
24486;BME280;13449;49.374;8.584;2022-08-01T12:12:50;100655.03;;;30.06;44.51
24486;BME280;13449;49.374;8.584;2022-08-01T12:15:21;100689.19;;;30.00;42.80
24486;BME280;13449;49.374;8.584;2022-08-01T12:20:36;100715.41;;;29.31;41.98
24486;BME280;13449;49.374;8.584;2022-08-01T12:23:07;100700.81;;;29.28;41.50
24486;BME280;13449;49.374;8.584;2022-08-01T12:25:35;100695.03;;;29.20;42.06
24486;BME280;13449;49.374;8.584;2022-08-01T12:28:03;100699.63;;;28.73;41.58
24486;BME280;13449;49.374;8.584;2022-08-01T12:30:33;100640.28;;;28.80;45.27
24486;BME280;13449;49.374;8.584;2022-08-01T12:33:04;100652.13;;;28.96;43.03
24486;BME280;13449;49.374;8.584;2022-08-01T12:35:32;100614.16;;;29.17;46.53
24486;BME280;13449;49.374;8.584;2022-08-01T12:38:02;100616.59;;;29.56;45.20
24486;BME280;13449;49.374;8.584;2022-08-01T12:40:35;100623.69;;;29.99;44.82
24486;BME280;13449;49.374;8.584;2022-08-01T12:43:07;100675.16;;;29.81;41.70
24486;BME280;13449;49.374;8.584;2022-08-01T12:45:45;100628.38;;;30.17;44.21
24486;BME280;13449;49.374;8.584;2022-08-01T12:48:23;100652.03;;;30.16;41.94
24486;BME280;13449;49.374;8.584;2022-08-01T12:50:51;100676.91;;;30.23;40.63
24486;BME280;13449;49.374;8.584;2022-08-01T12:53:19;100659.31;;;30.31;42.08
24486;BME280;13449;49.374;8.584;2022-08-01T12:55:51;100685.78;;;30.30;39.92
24486;BME280;13449;49.374;8.584;2022-08-01T12:58:31;100705.69;;;30.06;38.77
24486;BME280;13449;49.374;8.584;2022-08-01T13:01:05;100697.66;;;30.27;39.18
24486;BME280;13449;49.374;8.584;2022-08-01T13:03:32;100679.03;;;30.58;41.09
24486;BME280;13449;49.374;8.584;2022-08-01T13:05:59;100705.56;;;30.11;38.43
24486;BME280;13449;49.374;8.584;2022-08-01T13:08:31;100674.53;;;30.16;40.84
24486;BME280;13449;49.374;8.584;2022-08-01T13:11:07;100658.69;;;30.34;40.43
24486;BME280;13449;49.374;8.584;2022-08-01T13:13:48;100687.81;;;30.43;39.07
24486;BME280;13449;49.374;8.584;2022-08-01T13:16:17;100683.22;;;30.47;39.85
24486;BME280;13449;49.374;8.584;2022-08-01T13:19:05;100648.66;;;30.42;41.52
24486;BME280;13449;49.374;8.584;2022-08-01T13:21:32;100628.75;;;30.38;42.63
24486;BME280;13449;49.374;8.584;2022-08-01T13:26:57;100633.78;;;30.28;42.06
24486;BME280;13449;49.374;8.584;2022-08-01T13:29:33;100667.84;;;29.99;39.36
24486;BME280;13449;49.374;8.584;2022-08-01T13:32:12;100641.91;;;30.15;41.45
24486;BME280;13449;49.374;8.584;2022-08-01T13:35:03;100643.97;;;30.37;39.83
24486;BME280;13449;49.374;8.584;2022-08-01T13:37:31;100667.97;;;30.21;38.61
24486;BME280;13449;49.374;8.584;2022-08-01T13:39:57;100628.97;;;30.42;42.85
24486;BME280;13449;49.374;8.584;2022-08-01T13:42:24;100635.84;;;30.36;40.83
24486;BME280;13449;49.374;8.584;2022-08-01T13:44:55;100630.84;;;30.19;40.87
24486;BME280;13449;49.374;8.584;2022-08-01T13:47:21;100638.78;;;30.17;41.08
24486;BME280;13449;49.374;8.584;2022-08-01T13:49:58;100650.00;;;29.90;40.54
24486;BME280;13449;49.374;8.584;2022-08-01T13:52:28;100637.19;;;30.11;40.83
24486;BME280;13449;49.374;8.584;2022-08-01T13:54:57;100630.22;;;30.08;40.19
24486;BME280;13449;49.374;8.584;2022-08-01T13:57:24;100631.47;;;29.89;40.95
24486;BME280;13449;49.374;8.584;2022-08-01T14:00:04;100627.78;;;29.74;41.93
24486;BME280;13449;49.374;8.584;2022-08-01T14:02:31;100603.72;;;29.68;42.89
24486;BME280;13449;49.374;8.584;2022-08-01T14:04:58;100597.34;;;29.63;42.28
24486;BME280;13449;49.374;8.584;2022-08-01T14:07:27;100584.34;;;29.67;42.71
24486;BME280;13449;49.374;8.584;2022-08-01T14:09:54;100610.69;;;29.57;40.85
24486;BME280;13449;49.374;8.584;2022-08-01T14:12:45;100600.50;;;29.75;42.28
24486;BME280;13449;49.374;8.584;2022-08-01T14:15:13;100578.22;;;29.79;43.41
24486;BME280;13449;49.374;8.584;2022-08-01T14:18:08;100587.47;;;29.65;42.65
24486;BME280;13449;49.374;8.584;2022-08-01T14:20:36;100576.44;;;29.69;42.41
24486;BME280;13449;49.374;8.584;2022-08-01T14:23:10;100581.94;;;29.60;42.79
24486;BME280;13449;49.374;8.584;2022-08-01T14:25:38;100557.28;;;29.57;45.22